sensor_id;sensor_type;location;lat;lon;timestamp;P1;durP1;ratioP1;P2;durP2;ratioP2
26082;SDS011;13848;49.018;12.078;2023-10-13T00:01:06;15.45;;;7.32;;
26082;SDS011;13848;49.018;12.078;2023-10-13T00:03:32;12.15;;;6.97;;
26082;SDS011;13848;49.018;12.078;2023-10-13T00:05:59;10.68;;;6.82;;
26082;SDS011;13848;49.018;12.078;2023-10-13T00:08:25;13.50;;;7.30;;
26082;SDS011;13848;49.018;12.078;2023-10-13T00:10:51;14.25;;;7.00;;
26082;SDS011;13848;49.018;12.078;2023-10-13T00:13:17;13.82;;;7.20;;
26082;SDS011;13848;49.018;12.078;2023-10-13T00:15:44;11.77;;;7.60;;
26082;SDS011;13848;49.018;12.078;2023-10-13T00:18:11;10.77;;;7.32;;
26082;SDS011;13848;49.018;12.078;2023-10-13T00:20:37;17.15;;;7.55;;
26082;SDS011;13848;49.018;12.078;2023-10-13T00:23:06;14.65;;;7.00;;
26082;SDS011;13848;49.018;12.078;2023-10-13T00:25:31;18.27;;;7.05;;
26082;SDS011;13848;49.018;12.078;2023-10-13T00:27:57;12.77;;;6.75;;
26082;SDS011;13848;49.018;12.078;2023-10-13T00:30:23;12.35;;;7.47;;
26082;SDS011;13848;49.018;12.078;2023-10-13T00:32:50;12.93;;;6.97;;
26082;SDS011;13848;49.018;12.078;2023-10-13T00:35:17;8.80;;;6.03;;
26082;SDS011;13848;49.018;12.078;2023-10-13T00:37:43;15.00;;;7.05;;
26082;SDS011;13848;49.018;12.078;2023-10-13T00:40:11;18.23;;;7.57;;
26082;SDS011;13848;49.018;12.078;2023-10-13T00:42:37;12.95;;;6.82;;
26082;SDS011;13848;49.018;12.078;2023-10-13T00:45:03;11.15;;;6.82;;
26082;SDS011;13848;49.018;12.078;2023-10-13T00:47:30;10.82;;;7.03;;
26082;SDS011;13848;49.018;12.078;2023-10-13T00:49:56;11.05;;;7.05;;
26082;SDS011;13848;49.018;12.078;2023-10-13T00:52:22;15.85;;;7.30;;
26082;SDS011;13848;49.018;12.078;2023-10-13T00:54:51;10.25;;;6.65;;
26082;SDS011;13848;49.018;12.078;2023-10-13T00:57:19;10.65;;;7.00;;
26082;SDS011;13848;49.018;12.078;2023-10-13T00:59:45;11.70;;;6.47;;
26082;SDS011;13848;49.018;12.078;2023-10-13T01:02:11;14.80;;;7.38;;
26082;SDS011;13848;49.018;12.078;2023-10-13T01:04:37;11.45;;;6.63;;
26082;SDS011;13848;49.018;12.078;2023-10-13T01:07:03;15.52;;;7.22;;
26082;SDS011;13848;49.018;12.078;2023-10-13T01:09:29;18.15;;;6.97;;
26082;SDS011;13848;49.018;12.078;2023-10-13T01:12:05;11.68;;;6.85;;
26082;SDS011;13848;49.018;12.078;2023-10-13T01:14:33;14.23;;;7.45;;
26082;SDS011;13848;49.018;12.078;2023-10-13T01:16:59;14.10;;;6.97;;
26082;SDS011;13848;49.018;12.078;2023-10-13T01:19:25;12.70;;;7.05;;
26082;SDS011;13848;49.018;12.078;2023-10-13T01:21:51;13.55;;;7.18;;
26082;SDS011;13848;49.018;12.078;2023-10-13T01:24:18;11.93;;;7.45;;
26082;SDS011;13848;49.018;12.078;2023-10-13T01:26:44;13.77;;;7.47;;
26082;SDS011;13848;49.018;12.078;2023-10-13T01:29:10;11.20;;;6.50;;
26082;SDS011;13848;49.018;12.078;2023-10-13T01:31:36;17.17;;;6.90;;
26082;SDS011;13848;49.018;12.078;2023-10-13T01:34:02;14.95;;;7.38;;
26082;SDS011;13848;49.018;12.078;2023-10-13T01:36:28;11.80;;;6.80;;
26082;SDS011;13848;49.018;12.078;2023-10-13T01:38:54;13.07;;;7.57;;
26082;SDS011;13848;49.018;12.078;2023-10-13T01:41:22;13.82;;;7.28;;
26082;SDS011;13848;49.018;12.078;2023-10-13T01:43:48;10.75;;;6.68;;
26082;SDS011;13848;49.018;12.078;2023-10-13T01:46:14;15.35;;;7.13;;
26082;SDS011;13848;49.018;12.078;2023-10-13T01:48:40;15.10;;;7.43;;
26082;SDS011;13848;49.018;12.078;2023-10-13T01:51:06;13.15;;;6.97;;
26082;SDS011;13848;49.018;12.078;2023-10-13T01:53:32;14.50;;;6.38;;
26082;SDS011;13848;49.018;12.078;2023-10-13T01:55:58;7.85;;;5.82;;
26082;SDS011;13848;49.018;12.078;2023-10-13T01:58:25;11.10;;;6.57;;
26082;SDS011;13848;49.018;12.078;2023-10-13T02:00:51;11.77;;;6.45;;
26082;SDS011;13848;49.018;12.078;2023-10-13T02:03:17;16.10;;;6.70;;
26082;SDS011;13848;49.018;12.078;2023-10-13T02:05:44;14.77;;;7.32;;
26082;SDS011;13848;49.018;12.078;2023-10-13T02:08:10;11.38;;;7.15;;
26082;SDS011;13848;49.018;12.078;2023-10-13T02:10:36;12.95;;;7.07;;
26082;SDS011;13848;49.018;12.078;2023-10-13T02:13:02;10.95;;;6.78;;
26082;SDS011;13848;49.018;12.078;2023-10-13T02:15:30;11.13;;;6.45;;
26082;SDS011;13848;49.018;12.078;2023-10-13T02:17:56;11.88;;;7.20;;
26082;SDS011;13848;49.018;12.078;2023-10-13T02:20:22;11.52;;;6.65;;
26082;SDS011;13848;49.018;12.078;2023-10-13T02:22:47;12.25;;;7.28;;
26082;SDS011;13848;49.018;12.078;2023-10-13T02:25:13;11.05;;;6.50;;
26082;SDS011;13848;49.018;12.078;2023-10-13T02:27:39;12.20;;;6.90;;
26082;SDS011;13848;49.018;12.078;2023-10-13T02:30:06;14.70;;;6.30;;
26082;SDS011;13848;49.018;12.078;2023-10-13T02:32:34;9.70;;;6.25;;
26082;SDS011;13848;49.018;12.078;2023-10-13T02:35:00;10.82;;;6.45;;
26082;SDS011;13848;49.018;12.078;2023-10-13T02:37:26;18.48;;;7.18;;
26082;SDS011;13848;49.018;12.078;2023-10-13T02:39:52;13.25;;;6.93;;
26082;SDS011;13848;49.018;12.078;2023-10-13T02:42:18;15.23;;;6.80;;
26082;SDS011;13848;49.018;12.078;2023-10-13T02:44:44;10.93;;;6.57;;
26082;SDS011;13848;49.018;12.078;2023-10-13T02:47:10;13.10;;;7.22;;
26082;SDS011;13848;49.018;12.078;2023-10-13T02:49:37;10.27;;;6.60;;
26082;SDS011;13848;49.018;12.078;2023-10-13T02:52:03;15.23;;;7.38;;
26082;SDS011;13848;49.018;12.078;2023-10-13T02:54:29;15.70;;;7.28;;
26082;SDS011;13848;49.018;12.078;2023-10-13T02:56:55;9.73;;;6.40;;
26082;SDS011;13848;49.018;12.078;2023-10-13T02:59:21;11.93;;;7.53;;
26082;SDS011;13848;49.018;12.078;2023-10-13T03:01:46;13.48;;;6.75;;
26082;SDS011;13848;49.018;12.078;2023-10-13T03:04:12;10.20;;;6.80;;
26082;SDS011;13848;49.018;12.078;2023-10-13T03:06:40;12.68;;;6.78;;
26082;SDS011;13848;49.018;12.078;2023-10-13T03:09:07;9.65;;;6.22;;
26082;SDS011;13848;49.018;12.078;2023-10-13T03:11:34;13.45;;;6.78;;
26082;SDS011;13848;49.018;12.078;2023-10-13T03:14:00;12.82;;;7.07;;
26082;SDS011;13848;49.018;12.078;2023-10-13T03:16:26;15.63;;;7.90;;
26082;SDS011;13848;49.018;12.078;2023-10-13T03:18:52;11.90;;;7.32;;
26082;SDS011;13848;49.018;12.078;2023-10-13T03:21:18;10.75;;;6.72;;
26082;SDS011;13848;49.018;12.078;2023-10-13T03:23:45;14.05;;;7.07;;
26082;SDS011;13848;49.018;12.078;2023-10-13T03:26:11;14.98;;;6.93;;
26082;SDS011;13848;49.018;12.078;2023-10-13T03:28:37;12.98;;;8.25;;
26082;SDS011;13848;49.018;12.078;2023-10-13T03:31:03;15.65;;;8.23;;
26082;SDS011;13848;49.018;12.078;2023-10-13T03:33:29;16.48;;;8.98;;
26082;SDS011;13848;49.018;12.078;2023-10-13T03:35:55;15.40;;;9.00;;
26082;SDS011;13848;49.018;12.078;2023-10-13T03:38:21;19.55;;;8.55;;
26082;SDS011;13848;49.018;12.078;2023-10-13T03:40:49;12.80;;;7.78;;
26082;SDS011;13848;49.018;12.078;2023-10-13T03:43:16;17.17;;;8.38;;
26082;SDS011;13848;49.018;12.078;2023-10-13T03:45:42;11.63;;;7.20;;
26082;SDS011;13848;49.018;12.078;2023-10-13T03:48:10;15.10;;;8.65;;
26082;SDS011;13848;49.018;12.078;2023-10-13T03:50:37;17.63;;;9.07;;
26082;SDS011;13848;49.018;12.078;2023-10-13T03:53:04;13.57;;;8.70;;
26082;SDS011;13848;49.018;12.078;2023-10-13T03:55:30;13.32;;;8.45;;
26082;SDS011;13848;49.018;12.078;2023-10-13T03:57:57;16.08;;;9.25;;
26082;SDS011;13848;49.018;12.078;2023-10-13T04:00:23;15.75;;;9.45;;
26082;SDS011;13848;49.018;12.078;2023-10-13T04:02:49;15.20;;;9.20;;
26082;SDS011;13848;49.018;12.078;2023-10-13T04:05:15;19.48;;;9.30;;
26082;SDS011;13848;49.018;12.078;2023-10-13T04:07:41;17.13;;;9.50;;
26082;SDS011;13848;49.018;12.078;2023-10-13T04:10:07;19.75;;;9.73;;
26082;SDS011;13848;49.018;12.078;2023-10-13T04:12:33;17.50;;;9.70;;
26082;SDS011;13848;49.018;12.078;2023-10-13T04:15:01;19.45;;;9.60;;
26082;SDS011;13848;49.018;12.078;2023-10-13T04:17:26;23.75;;;10.07;;
26082;SDS011;13848;49.018;12.078;2023-10-13T04:19:53;19.52;;;10.25;;
26082;SDS011;13848;49.018;12.078;2023-10-13T04:22:19;19.48;;;10.48;;
26082;SDS011;13848;49.018;12.078;2023-10-13T04:24:47;20.60;;;10.20;;
26082;SDS011;13848;49.018;12.078;2023-10-13T04:27:14;15.18;;;9.82;;
26082;SDS011;13848;49.018;12.078;2023-10-13T04:29:40;17.08;;;9.90;;
26082;SDS011;13848;49.018;12.078;2023-10-13T04:32:08;17.70;;;10.02;;
26082;SDS011;13848;49.018;12.078;2023-10-13T04:34:34;21.98;;;11.07;;
26082;SDS011;13848;49.018;12.078;2023-10-13T04:37:00;19.85;;;10.32;;
26082;SDS011;13848;49.018;12.078;2023-10-13T04:39:26;17.88;;;10.05;;
26082;SDS011;13848;49.018;12.078;2023-10-13T04:41:51;20.13;;;10.57;;
26082;SDS011;13848;49.018;12.078;2023-10-13T04:44:17;25.50;;;10.68;;
26082;SDS011;13848;49.018;12.078;2023-10-13T04:46:43;16.67;;;10.13;;
26082;SDS011;13848;49.018;12.078;2023-10-13T04:49:11;17.52;;;10.43;;
26082;SDS011;13848;49.018;12.078;2023-10-13T04:51:37;20.60;;;11.27;;
26082;SDS011;13848;49.018;12.078;2023-10-13T04:54:03;23.90;;;11.05;;
26082;SDS011;13848;49.018;12.078;2023-10-13T04:56:29;25.70;;;10.90;;
26082;SDS011;13848;49.018;12.078;2023-10-13T04:58:55;17.92;;;11.18;;
26082;SDS011;13848;49.018;12.078;2023-10-13T05:01:21;15.50;;;10.75;;
26082;SDS011;13848;49.018;12.078;2023-10-13T05:03:47;17.73;;;10.77;;
26082;SDS011;13848;49.018;12.078;2023-10-13T05:06:15;21.15;;;11.70;;
26082;SDS011;13848;49.018;12.078;2023-10-13T05:08:41;17.40;;;10.90;;
26082;SDS011;13848;49.018;12.078;2023-10-13T05:11:07;15.23;;;10.85;;
26082;SDS011;13848;49.018;12.078;2023-10-13T05:13:33;18.98;;;10.43;;
26082;SDS011;13848;49.018;12.078;2023-10-13T05:15:58;20.20;;;10.25;;
26082;SDS011;13848;49.018;12.078;2023-10-13T05:18:25;19.17;;;11.27;;
26082;SDS011;13848;49.018;12.078;2023-10-13T05:20:54;17.50;;;10.88;;
26082;SDS011;13848;49.018;12.078;2023-10-13T05:23:22;19.73;;;10.85;;
26082;SDS011;13848;49.018;12.078;2023-10-13T05:25:48;17.13;;;9.98;;
26082;SDS011;13848;49.018;12.078;2023-10-13T05:28:13;15.55;;;9.70;;
26082;SDS011;13848;49.018;12.078;2023-10-13T05:30:39;19.52;;;10.27;;
26082;SDS011;13848;49.018;12.078;2023-10-13T05:33:05;20.15;;;11.15;;
26082;SDS011;13848;49.018;12.078;2023-10-13T05:35:31;19.58;;;10.88;;
26082;SDS011;13848;49.018;12.078;2023-10-13T05:37:57;29.88;;;14.40;;
26082;SDS011;13848;49.018;12.078;2023-10-13T05:40:25;20.80;;;12.20;;
26082;SDS011;13848;49.018;12.078;2023-10-13T05:42:51;23.58;;;12.05;;
26082;SDS011;13848;49.018;12.078;2023-10-13T05:45:17;19.20;;;10.90;;
26082;SDS011;13848;49.018;12.078;2023-10-13T05:47:43;20.27;;;11.48;;
26082;SDS011;13848;49.018;12.078;2023-10-13T05:50:09;18.80;;;11.23;;
26082;SDS011;13848;49.018;12.078;2023-10-13T05:52:36;20.25;;;10.23;;
26082;SDS011;13848;49.018;12.078;2023-10-13T05:55:02;18.88;;;10.60;;
26082;SDS011;13848;49.018;12.078;2023-10-13T05:57:29;18.70;;;9.95;;
26082;SDS011;13848;49.018;12.078;2023-10-13T05:59:55;16.73;;;9.75;;
26082;SDS011;13848;49.018;12.078;2023-10-13T06:02:21;24.45;;;10.75;;
26082;SDS011;13848;49.018;12.078;2023-10-13T06:04:48;18.08;;;10.30;;
26082;SDS011;13848;49.018;12.078;2023-10-13T06:07:14;19.27;;;10.90;;
26082;SDS011;13848;49.018;12.078;2023-10-13T06:09:40;19.95;;;10.75;;
26082;SDS011;13848;49.018;12.078;2023-10-13T06:12:06;18.65;;;10.45;;
26082;SDS011;13848;49.018;12.078;2023-10-13T06:14:33;16.00;;;9.90;;
26082;SDS011;13848;49.018;12.078;2023-10-13T06:16:59;19.15;;;9.73;;
26082;SDS011;13848;49.018;12.078;2023-10-13T06:19:25;19.98;;;10.25;;
26082;SDS011;13848;49.018;12.078;2023-10-13T06:21:51;16.83;;;10.18;;
26082;SDS011;13848;49.018;12.078;2023-10-13T06:24:22;17.67;;;10.90;;
26082;SDS011;13848;49.018;12.078;2023-10-13T06:26:48;17.67;;;10.30;;
26082;SDS011;13848;49.018;12.078;2023-10-13T06:29:14;16.95;;;10.43;;
26082;SDS011;13848;49.018;12.078;2023-10-13T06:31:41;21.02;;;10.68;;
26082;SDS011;13848;49.018;12.078;2023-10-13T06:34:07;17.45;;;10.48;;
26082;SDS011;13848;49.018;12.078;2023-10-13T06:36:33;17.40;;;10.25;;
26082;SDS011;13848;49.018;12.078;2023-10-13T06:38:59;18.38;;;11.13;;
26082;SDS011;13848;49.018;12.078;2023-10-13T06:41:25;17.25;;;10.18;;
26082;SDS011;13848;49.018;12.078;2023-10-13T06:43:51;15.32;;;10.55;;
26082;SDS011;13848;49.018;12.078;2023-10-13T06:46:17;18.35;;;10.43;;
26082;SDS011;13848;49.018;12.078;2023-10-13T06:48:44;16.77;;;9.88;;
26082;SDS011;13848;49.018;12.078;2023-10-13T06:51:10;19.23;;;11.32;;
26082;SDS011;13848;49.018;12.078;2023-10-13T06:53:36;17.10;;;10.45;;
26082;SDS011;13848;49.018;12.078;2023-10-13T06:56:02;19.13;;;11.10;;
26082;SDS011;13848;49.018;12.078;2023-10-13T06:58:31;19.85;;;10.65;;
26082;SDS011;13848;49.018;12.078;2023-10-13T07:00:57;15.20;;;10.13;;
26082;SDS011;13848;49.018;12.078;2023-10-13T07:03:23;17.67;;;10.52;;
26082;SDS011;13848;49.018;12.078;2023-10-13T07:05:51;15.48;;;9.80;;
26082;SDS011;13848;49.018;12.078;2023-10-13T07:08:17;15.50;;;9.88;;
26082;SDS011;13848;49.018;12.078;2023-10-13T07:10:47;16.42;;;10.07;;
26082;SDS011;13848;49.018;12.078;2023-10-13T07:13:13;22.40;;;10.18;;
26082;SDS011;13848;49.018;12.078;2023-10-13T07:15:39;19.02;;;9.88;;
26082;SDS011;13848;49.018;12.078;2023-10-13T07:18:05;13.85;;;9.13;;
26082;SDS011;13848;49.018;12.078;2023-10-13T07:20:32;16.13;;;9.70;;
26082;SDS011;13848;49.018;12.078;2023-10-13T07:23:00;20.15;;;10.05;;
26082;SDS011;13848;49.018;12.078;2023-10-13T07:25:26;18.70;;;9.48;;
26082;SDS011;13848;49.018;12.078;2023-10-13T07:27:53;17.42;;;8.88;;
26082;SDS011;13848;49.018;12.078;2023-10-13T07:30:19;14.77;;;9.20;;
26082;SDS011;13848;49.018;12.078;2023-10-13T07:32:45;13.02;;;9.35;;
26082;SDS011;13848;49.018;12.078;2023-10-13T07:35:11;14.43;;;8.85;;
26082;SDS011;13848;49.018;12.078;2023-10-13T07:37:38;15.80;;;9.40;;
26082;SDS011;13848;49.018;12.078;2023-10-13T07:40:06;12.63;;;8.57;;
26082;SDS011;13848;49.018;12.078;2023-10-13T07:42:33;13.00;;;8.85;;
26082;SDS011;13848;49.018;12.078;2023-10-13T07:44:59;14.70;;;9.23;;
26082;SDS011;13848;49.018;12.078;2023-10-13T07:47:25;14.35;;;9.32;;
26082;SDS011;13848;49.018;12.078;2023-10-13T07:49:51;14.10;;;8.38;;
26082;SDS011;13848;49.018;12.078;2023-10-13T07:52:19;15.18;;;8.80;;
26082;SDS011;13848;49.018;12.078;2023-10-13T07:54:45;14.80;;;8.65;;
26082;SDS011;13848;49.018;12.078;2023-10-13T07:57:13;15.75;;;9.18;;
26082;SDS011;13848;49.018;12.078;2023-10-13T07:59:39;23.95;;;9.10;;
26082;SDS011;13848;49.018;12.078;2023-10-13T08:02:05;14.98;;;8.85;;
26082;SDS011;13848;49.018;12.078;2023-10-13T08:04:31;17.48;;;8.55;;
26082;SDS011;13848;49.018;12.078;2023-10-13T08:06:57;13.77;;;8.63;;
26082;SDS011;13848;49.018;12.078;2023-10-13T08:09:23;12.82;;;8.18;;
26082;SDS011;13848;49.018;12.078;2023-10-13T08:11:49;10.75;;;7.60;;
26082;SDS011;13848;49.018;12.078;2023-10-13T08:14:16;14.25;;;7.70;;
26082;SDS011;13848;49.018;12.078;2023-10-13T08:16:42;11.25;;;7.75;;
26082;SDS011;13848;49.018;12.078;2023-10-13T08:19:08;14.43;;;7.88;;
26082;SDS011;13848;49.018;12.078;2023-10-13T08:21:34;10.82;;;7.45;;
26082;SDS011;13848;49.018;12.078;2023-10-13T08:24:00;13.10;;;7.05;;
26082;SDS011;13848;49.018;12.078;2023-10-13T08:26:27;12.30;;;7.25;;
26082;SDS011;13848;49.018;12.078;2023-10-13T08:28:53;16.60;;;7.25;;
26082;SDS011;13848;49.018;12.078;2023-10-13T08:31:21;11.98;;;6.82;;
26082;SDS011;13848;49.018;12.078;2023-10-13T08:33:47;14.55;;;7.93;;
26082;SDS011;13848;49.018;12.078;2023-10-13T08:36:13;14.25;;;7.32;;
26082;SDS011;13848;49.018;12.078;2023-10-13T08:38:39;10.30;;;6.95;;
26082;SDS011;13848;49.018;12.078;2023-10-13T08:41:05;16.90;;;6.72;;
26082;SDS011;13848;49.018;12.078;2023-10-13T08:43:32;19.10;;;7.82;;
26082;SDS011;13848;49.018;12.078;2023-10-13T08:45:58;12.70;;;6.63;;
26082;SDS011;13848;49.018;12.078;2023-10-13T08:48:25;11.85;;;6.50;;
26082;SDS011;13848;49.018;12.078;2023-10-13T08:50:52;9.82;;;6.57;;
26082;SDS011;13848;49.018;12.078;2023-10-13T08:53:19;9.68;;;6.03;;
26082;SDS011;13848;49.018;12.078;2023-10-13T08:55:45;9.18;;;6.28;;
26082;SDS011;13848;49.018;12.078;2023-10-13T08:58:11;9.75;;;6.28;;
26082;SDS011;13848;49.018;12.078;2023-10-13T09:00:37;11.38;;;5.60;;
26082;SDS011;13848;49.018;12.078;2023-10-13T09:03:04;13.02;;;6.28;;
26082;SDS011;13848;49.018;12.078;2023-10-13T09:05:33;7.80;;;5.20;;
26082;SDS011;13848;49.018;12.078;2023-10-13T09:08:00;8.82;;;5.90;;
26082;SDS011;13848;49.018;12.078;2023-10-13T09:10:26;11.60;;;6.18;;
26082;SDS011;13848;49.018;12.078;2023-10-13T09:12:53;13.57;;;6.05;;
26082;SDS011;13848;49.018;12.078;2023-10-13T09:15:27;14.38;;;5.78;;
26082;SDS011;13848;49.018;12.078;2023-10-13T09:17:54;11.52;;;6.07;;
26082;SDS011;13848;49.018;12.078;2023-10-13T09:20:27;13.95;;;5.85;;
26082;SDS011;13848;49.018;12.078;2023-10-13T09:22:56;8.02;;;5.38;;
26082;SDS011;13848;49.018;12.078;2023-10-13T09:25:22;12.82;;;5.68;;
26082;SDS011;13848;49.018;12.078;2023-10-13T09:27:49;10.70;;;5.80;;
26082;SDS011;13848;49.018;12.078;2023-10-13T09:30:15;11.10;;;5.38;;
26082;SDS011;13848;49.018;12.078;2023-10-13T09:32:41;10.88;;;5.55;;
26082;SDS011;13848;49.018;12.078;2023-10-13T09:35:07;10.98;;;5.53;;
26082;SDS011;13848;49.018;12.078;2023-10-13T09:37:35;9.75;;;4.72;;
26082;SDS011;13848;49.018;12.078;2023-10-13T09:40:03;9.25;;;4.97;;
26082;SDS011;13848;49.018;12.078;2023-10-13T09:42:30;8.70;;;4.60;;
26082;SDS011;13848;49.018;12.078;2023-10-13T09:44:56;9.23;;;4.63;;
26082;SDS011;13848;49.018;12.078;2023-10-13T09:47:22;8.93;;;4.50;;
26082;SDS011;13848;49.018;12.078;2023-10-13T09:49:48;9.77;;;4.82;;
26082;SDS011;13848;49.018;12.078;2023-10-13T09:52:19;9.50;;;4.30;;
26082;SDS011;13848;49.018;12.078;2023-10-13T09:54:53;9.05;;;4.53;;
26082;SDS011;13848;49.018;12.078;2023-10-13T09:57:28;7.95;;;4.60;;
26082;SDS011;13848;49.018;12.078;2023-10-13T09:59:59;7.22;;;4.60;;
26082;SDS011;13848;49.018;12.078;2023-10-13T10:02:31;13.23;;;3.85;;
26082;SDS011;13848;49.018;12.078;2023-10-13T10:04:57;8.43;;;4.38;;
26082;SDS011;13848;49.018;12.078;2023-10-13T10:07:23;9.70;;;4.32;;
26082;SDS011;13848;49.018;12.078;2023-10-13T10:09:55;8.40;;;3.85;;
26082;SDS011;13848;49.018;12.078;2023-10-13T10:12:24;11.85;;;3.90;;
26082;SDS011;13848;49.018;12.078;2023-10-13T10:15:06;6.35;;;3.65;;
26082;SDS011;13848;49.018;12.078;2023-10-13T10:17:38;6.95;;;3.70;;
26082;SDS011;13848;49.018;12.078;2023-10-13T10:20:06;8.65;;;3.25;;
26082;SDS011;13848;49.018;12.078;2023-10-13T10:22:33;7.10;;;2.97;;
26082;SDS011;13848;49.018;12.078;2023-10-13T10:24:59;10.65;;;3.45;;
26082;SDS011;13848;49.018;12.078;2023-10-13T10:27:27;14.55;;;3.30;;
26082;SDS011;13848;49.018;12.078;2023-10-13T10:29:55;5.60;;;3.00;;
26082;SDS011;13848;49.018;12.078;2023-10-13T10:32:31;8.55;;;2.72;;
26082;SDS011;13848;49.018;12.078;2023-10-13T10:35:01;10.35;;;3.25;;
26082;SDS011;13848;49.018;12.078;2023-10-13T10:39:56;4.30;;;2.53;;
26082;SDS011;13848;49.018;12.078;2023-10-13T10:42:23;6.50;;;2.83;;
26082;SDS011;13848;49.018;12.078;2023-10-13T10:44:50;8.07;;;2.88;;
26082;SDS011;13848;49.018;12.078;2023-10-13T10:47:17;5.28;;;2.85;;
26082;SDS011;13848;49.018;12.078;2023-10-13T10:49:43;5.38;;;2.92;;
26082;SDS011;13848;49.018;12.078;2023-10-13T10:52:10;6.97;;;3.28;;
26082;SDS011;13848;49.018;12.078;2023-10-13T10:54:36;5.90;;;3.15;;
26082;SDS011;13848;49.018;12.078;2023-10-13T10:57:02;8.02;;;3.28;;
26082;SDS011;13848;49.018;12.078;2023-10-13T10:59:33;8.05;;;2.75;;
26082;SDS011;13848;49.018;12.078;2023-10-13T11:02:00;6.22;;;3.22;;
26082;SDS011;13848;49.018;12.078;2023-10-13T11:04:27;7.65;;;3.10;;
26082;SDS011;13848;49.018;12.078;2023-10-13T11:06:54;8.43;;;2.95;;
26082;SDS011;13848;49.018;12.078;2023-10-13T11:09:23;9.48;;;3.70;;
26082;SDS011;13848;49.018;12.078;2023-10-13T11:11:50;6.25;;;2.70;;
26082;SDS011;13848;49.018;12.078;2023-10-13T11:14:22;10.57;;;2.88;;
26082;SDS011;13848;49.018;12.078;2023-10-13T11:16:49;7.65;;;2.92;;
26082;SDS011;13848;49.018;12.078;2023-10-13T11:19:16;8.30;;;3.00;;
26082;SDS011;13848;49.018;12.078;2023-10-13T11:21:44;10.77;;;3.22;;
26082;SDS011;13848;49.018;12.078;2023-10-13T11:24:10;11.95;;;4.90;;
26082;SDS011;13848;49.018;12.078;2023-10-13T11:26:36;6.85;;;2.70;;
26082;SDS011;13848;49.018;12.078;2023-10-13T11:29:02;5.18;;;2.70;;
26082;SDS011;13848;49.018;12.078;2023-10-13T11:31:28;8.73;;;2.53;;
26082;SDS011;13848;49.018;12.078;2023-10-13T11:33:53;6.72;;;2.75;;
26082;SDS011;13848;49.018;12.078;2023-10-13T11:36:19;4.75;;;2.65;;
26082;SDS011;13848;49.018;12.078;2023-10-13T11:38:47;9.77;;;2.80;;
26082;SDS011;13848;49.018;12.078;2023-10-13T11:41:13;4.53;;;2.40;;
26082;SDS011;13848;49.018;12.078;2023-10-13T11:43:39;5.85;;;2.75;;
26082;SDS011;13848;49.018;12.078;2023-10-13T11:46:06;14.88;;;3.03;;
26082;SDS011;13848;49.018;12.078;2023-10-13T11:48:32;5.70;;;2.65;;
26082;SDS011;13848;49.018;12.078;2023-10-13T11:50:58;10.43;;;3.35;;
26082;SDS011;13848;49.018;12.078;2023-10-13T11:53:24;5.40;;;2.80;;
26082;SDS011;13848;49.018;12.078;2023-10-13T11:55:51;6.38;;;2.75;;
26082;SDS011;13848;49.018;12.078;2023-10-13T11:58:17;9.27;;;3.00;;
26082;SDS011;13848;49.018;12.078;2023-10-13T12:00:43;10.27;;;3.72;;
26082;SDS011;13848;49.018;12.078;2023-10-13T12:03:09;9.15;;;3.78;;
26082;SDS011;13848;49.018;12.078;2023-10-13T12:05:35;14.88;;;2.80;;
26082;SDS011;13848;49.018;12.078;2023-10-13T12:08:01;8.98;;;2.92;;
26082;SDS011;13848;49.018;12.078;2023-10-13T12:10:27;5.35;;;2.83;;
26082;SDS011;13848;49.018;12.078;2023-10-13T12:12:54;6.22;;;2.40;;
26082;SDS011;13848;49.018;12.078;2023-10-13T12:15:20;5.88;;;2.78;;
26082;SDS011;13848;49.018;12.078;2023-10-13T12:17:46;7.25;;;2.50;;
26082;SDS011;13848;49.018;12.078;2023-10-13T12:20:12;6.93;;;2.38;;
26082;SDS011;13848;49.018;12.078;2023-10-13T12:22:38;5.32;;;2.30;;
26082;SDS011;13848;49.018;12.078;2023-10-13T12:25:04;8.32;;;2.63;;
26082;SDS011;13848;49.018;12.078;2023-10-13T12:27:31;7.28;;;2.67;;
26082;SDS011;13848;49.018;12.078;2023-10-13T12:29:58;8.43;;;2.30;;
26082;SDS011;13848;49.018;12.078;2023-10-13T12:32:24;6.57;;;2.70;;
26082;SDS011;13848;49.018;12.078;2023-10-13T12:34:50;9.52;;;2.45;;
26082;SDS011;13848;49.018;12.078;2023-10-13T12:37:16;6.78;;;2.70;;
26082;SDS011;13848;49.018;12.078;2023-10-13T12:39:42;10.65;;;2.50;;
26082;SDS011;13848;49.018;12.078;2023-10-13T12:42:08;7.72;;;2.50;;
26082;SDS011;13848;49.018;12.078;2023-10-13T12:44:34;15.38;;;2.83;;
26082;SDS011;13848;49.018;12.078;2023-10-13T12:47:01;8.93;;;2.88;;
26082;SDS011;13848;49.018;12.078;2023-10-13T12:49:27;4.63;;;2.22;;
26082;SDS011;13848;49.018;12.078;2023-10-13T12:51:53;8.40;;;2.33;;
26082;SDS011;13848;49.018;12.078;2023-10-13T12:54:19;11.23;;;2.75;;
26082;SDS011;13848;49.018;12.078;2023-10-13T12:56:45;9.25;;;2.47;;
26082;SDS011;13848;49.018;12.078;2023-10-13T12:59:11;8.23;;;2.10;;
26082;SDS011;13848;49.018;12.078;2023-10-13T13:01:38;9.77;;;2.58;;
26082;SDS011;13848;49.018;12.078;2023-10-13T13:04:05;4.88;;;2.40;;
26082;SDS011;13848;49.018;12.078;2023-10-13T13:06:31;11.48;;;2.78;;
26082;SDS011;13848;49.018;12.078;2023-10-13T13:08:58;11.65;;;2.35;;
26082;SDS011;13848;49.018;12.078;2023-10-13T13:11:24;7.28;;;2.40;;
26082;SDS011;13848;49.018;12.078;2023-10-13T13:13:50;6.20;;;2.65;;
26082;SDS011;13848;49.018;12.078;2023-10-13T13:16:18;16.50;;;2.83;;
26082;SDS011;13848;49.018;12.078;2023-10-13T13:18:44;11.88;;;2.75;;
26082;SDS011;13848;49.018;12.078;2023-10-13T13:21:11;10.32;;;2.55;;
26082;SDS011;13848;49.018;12.078;2023-10-13T13:23:37;12.38;;;2.97;;
26082;SDS011;13848;49.018;12.078;2023-10-13T13:26:03;5.97;;;2.63;;
26082;SDS011;13848;49.018;12.078;2023-10-13T13:28:29;11.13;;;2.75;;
26082;SDS011;13848;49.018;12.078;2023-10-13T13:30:55;7.78;;;2.67;;
26082;SDS011;13848;49.018;12.078;2023-10-13T13:33:21;8.20;;;3.05;;
26082;SDS011;13848;49.018;12.078;2023-10-13T13:35:47;11.80;;;3.38;;
26082;SDS011;13848;49.018;12.078;2023-10-13T13:38:14;4.75;;;2.20;;
26082;SDS011;13848;49.018;12.078;2023-10-13T13:40:40;5.57;;;2.17;;
26082;SDS011;13848;49.018;12.078;2023-10-13T13:43:06;14.07;;;3.92;;
26082;SDS011;13848;49.018;12.078;2023-10-13T13:45:32;8.02;;;2.92;;
26082;SDS011;13848;49.018;12.078;2023-10-13T13:47:58;8.18;;;2.63;;
26082;SDS011;13848;49.018;12.078;2023-10-13T13:50:24;7.55;;;2.80;;
26082;SDS011;13848;49.018;12.078;2023-10-13T13:52:51;7.55;;;3.92;;
26082;SDS011;13848;49.018;12.078;2023-10-13T13:55:19;8.35;;;3.20;;
26082;SDS011;13848;49.018;12.078;2023-10-13T13:57:45;9.02;;;2.58;;
26082;SDS011;13848;49.018;12.078;2023-10-13T14:00:11;9.02;;;2.75;;
26082;SDS011;13848;49.018;12.078;2023-10-13T14:02:38;11.85;;;2.83;;
26082;SDS011;13848;49.018;12.078;2023-10-13T14:05:04;8.20;;;2.33;;
26082;SDS011;13848;49.018;12.078;2023-10-13T14:07:30;9.65;;;2.47;;
26082;SDS011;13848;49.018;12.078;2023-10-13T14:09:56;6.75;;;2.50;;
26082;SDS011;13848;49.018;12.078;2023-10-13T14:12:23;5.43;;;2.08;;
26082;SDS011;13848;49.018;12.078;2023-10-13T14:14:49;4.43;;;2.15;;
26082;SDS011;13848;49.018;12.078;2023-10-13T14:17:15;7.10;;;2.45;;
26082;SDS011;13848;49.018;12.078;2023-10-13T14:19:41;9.05;;;2.30;;
26082;SDS011;13848;49.018;12.078;2023-10-13T14:22:07;5.32;;;2.55;;